Terminal Aerodrome Forecast
Issued by NWS

Home | Current Version | Previous Version | Graphics & Text | Print | Product List | Glossary On
Versions: 1 2 3 4 5 6 7 8 9 10 11 12 13 14 15 16 17
000
FTUS43 KMPX 221733
TAFAXN
TAF
KAXN 221733Z 2218/2318 17018G26KT P6SM FEW040 SCT080
     FM230200 17014G22KT P6SM SCT050 BKN090
     FM230600 17015KT P6SM VCTS SCT025 BKN040CB
     FM230900 18014KT 6SM SHRA VCTS BKN025CB
     FM231400 19012G20KT P6SM VCSH SCT015 BKN025=

USA.gov is the U.S. government's official web portal to all federal, state and local government web resources and services.